createdAt,value
2022-09-28T00:02:02.798Z,7.05
2022-09-28T00:07:06.972Z,6.88
2022-09-28T00:12:10.336Z,6.97
2022-09-28T00:17:13.997Z,6.87
2022-09-28T00:22:18.230Z,6.97
2022-09-28T00:27:21.048Z,6.62
2022-09-28T00:32:25.050Z,6.71
2022-09-28T00:37:29.691Z,6.64
2022-09-28T00:42:32.493Z,6.80
2022-09-28T00:47:43.340Z,6.84
2022-09-28T00:52:53.195Z,6.85
2022-09-28T00:57:59.292Z,6.92
2022-09-28T01:03:02.259Z,6.97
2022-09-28T01:08:07.986Z,7.01
2022-09-28T01:13:11.661Z,7.03
2022-09-28T01:18:23.300Z,7.09
2022-09-28T01:23:49.679Z,7.06
2022-09-28T01:29:00.313Z,7.10
2022-09-28T01:34:11.365Z,7.10
2022-09-28T01:39:18.861Z,7.07
2022-09-28T01:44:25.414Z,7.09
2022-09-28T01:49:35.635Z,7.11
2022-09-28T01:54:44.392Z,7.13
2022-09-28T01:59:55.763Z,7.09
2022-09-28T02:05:04.246Z,7.07
2022-09-28T02:10:12.089Z,7.09
2022-09-28T02:15:22.073Z,7.07
2022-09-28T02:20:25.368Z,6.24
2022-09-28T02:25:33.515Z,6.81
2022-09-28T02:30:39.957Z,6.80
2022-09-28T02:35:43.454Z,7.06
2022-09-28T02:40:55.156Z,7.10
2022-09-28T02:46:04.886Z,6.98
2022-09-28T02:51:23.945Z,7.05
2022-09-28T02:56:47.165Z,6.85
2022-09-28T03:01:58.149Z,6.53
2022-09-28T03:07:07.029Z,6.68
2022-09-28T03:12:12.924Z,6.62
2022-09-28T03:17:17.630Z,6.75
2022-09-28T03:22:20.789Z,6.76
2022-09-28T03:27:23.677Z,6.69
2022-09-28T03:32:27.966Z,6.76
2022-09-28T03:37:30.809Z,6.92
2022-09-28T03:42:36.824Z,6.85
2022-09-28T03:47:46.385Z,6.87
2022-09-28T03:52:49.237Z,6.91
2022-09-28T03:57:55.929Z,6.91
2022-09-28T04:03:00.212Z,6.81
2022-09-28T04:08:04.260Z,6.85
2022-09-28T04:13:07.247Z,6.71
2022-09-28T04:18:12.440Z,6.66
2022-09-28T04:23:31.836Z,6.57
2022-09-28T04:29:07.243Z,6.42
2022-09-28T04:34:14.662Z,6.56
2022-09-28T04:39:19.178Z,6.62
2022-09-28T04:44:25.520Z,6.72
2022-09-28T04:49:37.073Z,6.80
2022-09-28T04:54:49.879Z,6.69
2022-09-28T04:59:52.753Z,6.71
2022-09-28T05:04:58.846Z,6.76
2022-09-28T05:10:21.864Z,6.76
2022-09-28T05:15:24.699Z,6.81
2022-09-28T05:20:29.177Z,6.73
2022-09-28T05:25:32.351Z,6.50
2022-09-28T05:30:44.946Z,6.69
2022-09-28T05:36:10.329Z,6.53
2022-09-28T05:41:13.373Z,6.55
2022-09-28T05:46:16.347Z,6.48
2022-09-28T05:51:20.631Z,6.51
2022-09-28T05:56:23.959Z,6.32
2022-09-28T06:01:28.358Z,6.41
2022-09-28T06:06:35.707Z,6.57
2022-09-28T06:11:38.629Z,6.70
2022-09-28T06:17:02.040Z,6.89
2022-09-28T06:22:06.326Z,7.05
2022-09-28T06:27:14.311Z,7.01
2022-09-28T06:32:18.268Z,7.14
2022-09-28T06:37:26.018Z,7.39
2022-09-28T06:42:29.413Z,7.65
2022-09-28T06:47:57.593Z,7.85
2022-09-28T06:53:12.289Z,7.65
2022-09-28T06:58:28.188Z,7.76
2022-09-28T07:03:33.344Z,7.93
2022-09-28T07:09:29.628Z,7.98
2022-09-28T07:14:57.268Z,7.48
2022-09-28T07:20:14.965Z,7.72
2022-09-28T07:25:24.272Z,7.95
2022-09-28T07:30:45.382Z,8.18
2022-09-28T07:35:53.451Z,7.91
2022-09-28T07:41:16.881Z,7.86
2022-09-28T07:46:23.642Z,7.86
2022-09-28T07:51:33.136Z,8.19
2022-09-28T07:56:55.741Z,8.33
2022-09-28T08:02:22.178Z,8.27
2022-09-28T08:07:25.677Z,8.29
2022-09-28T08:12:40.713Z,8.47
2022-09-28T08:18:00.512Z,8.42
2022-09-28T08:23:05.787Z,8.23
2022-09-28T08:28:10.584Z,8.28
2022-09-28T08:33:21.824Z,8.36
2022-09-28T08:38:24.706Z,8.28
2022-09-28T08:44:13.733Z,8.04
2022-09-28T08:49:50.294Z,7.79
2022-09-28T08:55:12.850Z,7.70
2022-09-28T09:00:22.757Z,7.82
2022-09-28T09:05:40.542Z,7.84
2022-09-28T09:10:52.108Z,7.85
2022-09-28T09:16:10.082Z,8.06
2022-09-28T09:21:42.509Z,8.29
2022-09-28T09:26:47.029Z,8.45
2022-09-28T09:32:07.256Z,8.69
2022-09-28T09:37:27.512Z,8.52
2022-09-28T09:43:29.506Z,8.89
2022-09-28T09:48:56.587Z,9.23
2022-09-28T09:54:03.422Z,9.29
2022-09-28T09:59:11.368Z,9.15
2022-09-28T10:04:39.964Z,9.31
2022-09-28T10:09:56.806Z,9.36
2022-09-28T10:15:24.822Z,9.42
2022-09-28T10:20:45.926Z,9.53
2022-09-28T10:26:03.363Z,9.86
2022-09-28T10:31:43.544Z,10.05
2022-09-28T10:36:58.533Z,10.01
2022-09-28T10:42:08.730Z,9.80
2022-09-28T10:47:18.014Z,9.63
2022-09-28T10:52:36.240Z,9.65
2022-09-28T10:57:40.745Z,9.62
2022-09-28T11:02:45.415Z,9.32
2022-09-28T11:08:01.304Z,8.83
2022-09-28T11:13:12.064Z,8.58
2022-09-28T11:18:21.179Z,8.67
2022-09-28T11:23:31.744Z,9.05
2022-09-28T11:28:51.353Z,9.56
2022-09-28T11:34:16.292Z,10.13
2022-09-28T11:39:45.993Z,9.78
2022-09-28T11:44:50.323Z,8.81
2022-09-28T11:50:01.131Z,8.11
2022-09-28T11:55:15.709Z,8.56
2022-09-28T12:00:22.239Z,8.82
2022-09-28T12:05:34.763Z,8.96
2022-09-28T12:10:48.051Z,9.72
2022-09-28T12:16:23.296Z,9.94
2022-09-28T12:21:42.042Z,10.48
2022-09-28T12:26:49.899Z,10.14
2022-09-28T12:32:03.544Z,10.04
2022-09-28T12:37:23.194Z,10.23
2022-09-28T12:42:56.164Z,10.08
2022-09-28T12:48:11.390Z,10.49
2022-09-28T12:53:41.445Z,10.32
2022-09-28T12:59:00.924Z,9.76
2022-09-28T13:04:20.969Z,9.39
2022-09-28T13:09:25.706Z,9.38
2022-09-28T13:15:01.668Z,8.90
2022-09-28T13:20:17.514Z,8.50
2022-09-28T13:25:22.828Z,8.93
2022-09-28T13:30:27.411Z,8.82
2022-09-28T13:35:30.985Z,8.67
2022-09-28T13:41:09.254Z,8.89
2022-09-28T13:46:25.237Z,10.22
2022-09-28T13:51:42.840Z,12.82
2022-09-28T13:56:51.789Z,13.66
2022-09-28T14:02:06.938Z,16.69
2022-09-28T14:07:16.431Z,15.62
2022-09-28T14:12:49.717Z,13.84
2022-09-28T14:18:02.244Z,10.51
2022-09-28T14:23:35.607Z,10.52
2022-09-28T14:28:49.989Z,11.06
2022-09-28T14:33:59.399Z,12.24
2022-09-28T14:39:27.989Z,14.20
2022-09-28T14:45:09.447Z,12.63
2022-09-28T14:50:26.871Z,11.88
2022-09-28T14:55:33.888Z,11.97
2022-09-28T15:00:37.253Z,12.02
2022-09-28T15:05:47.115Z,11.94
2022-09-28T15:10:51.672Z,12.23
2022-09-28T15:15:59.413Z,12.21
2022-09-28T15:21:04.521Z,12.31
2022-09-28T15:26:09.336Z,12.47
2022-09-28T15:31:18.898Z,12.10
2022-09-28T15:36:26.254Z,11.84
2022-09-28T15:41:29.938Z,11.79
2022-09-28T15:46:35.073Z,11.46
2022-09-28T15:51:53.304Z,10.95
2022-09-28T15:56:59.679Z,10.71
2022-09-28T16:02:10.853Z,11.02
2022-09-28T16:07:32.185Z,11.16
2022-09-28T16:12:46.133Z,11.54
2022-09-28T16:17:55.005Z,12.36
2022-09-28T16:23:05.657Z,12.98
2022-09-28T16:28:25.385Z,12.78
2022-09-28T16:33:29.814Z,12.22
2022-09-28T16:38:34.052Z,11.79
2022-09-28T16:43:36.872Z,10.98
2022-09-28T16:48:48.749Z,10.43
2022-09-28T16:54:10.521Z,10.14
2022-09-28T16:59:14.045Z,9.92
2022-09-28T17:04:16.970Z,9.64
2022-09-28T17:09:21.501Z,9.38
2022-09-28T17:14:24.831Z,9.19
2022-09-28T17:19:28.917Z,9.12
2022-09-28T17:24:33.021Z,9.02
2022-09-28T17:29:35.855Z,8.88
2022-09-28T17:34:38.669Z,8.79
2022-09-28T17:39:42.856Z,8.69
2022-09-28T17:44:46.555Z,8.63
2022-09-28T17:49:50.632Z,8.54
2022-09-28T17:54:55.041Z,8.48
2022-09-28T17:59:58.588Z,8.45
2022-09-28T18:05:02.564Z,8.43
2022-09-28T18:10:08.082Z,8.38
2022-09-28T18:15:11.932Z,8.34
2022-09-28T18:20:15.548Z,8.29
2022-09-28T18:25:19.814Z,8.22
2022-09-28T18:30:22.588Z,8.17
2022-09-28T18:35:25.512Z,8.13
2022-09-28T18:40:29.889Z,8.06
2022-09-28T18:45:33.113Z,8.02
2022-09-28T18:50:36.125Z,7.90
2022-09-28T18:55:40.824Z,7.81
2022-09-28T19:00:43.890Z,7.76
2022-09-28T19:05:46.869Z,7.70
2022-09-28T19:10:51.217Z,7.71
2022-09-28T19:15:54.157Z,7.78
2022-09-28T19:20:57.154Z,7.87
2022-09-28T19:26:04.628Z,7.83
2022-09-28T19:31:09.100Z,7.76
2022-09-28T19:36:14.242Z,7.72
2022-09-28T19:41:43.062Z,7.64
2022-09-28T19:46:46.748Z,7.55
2022-09-28T19:52:11.663Z,7.47
2022-09-28T19:57:15.844Z,7.44
2022-09-28T20:02:19.365Z,7.37
2022-09-28T20:07:22.193Z,7.34
2022-09-28T20:12:26.452Z,7.37
2022-09-28T20:17:29.246Z,7.33
2022-09-28T20:22:32.055Z,7.24
2022-09-28T20:27:36.201Z,7.24
2022-09-28T20:32:39.340Z,7.20
2022-09-28T20:37:43.144Z,7.16
2022-09-28T20:42:47.336Z,7.13
2022-09-28T20:47:51.306Z,7.10
2022-09-28T20:52:54.205Z,7.09
2022-09-28T20:58:03.862Z,7.09
2022-09-28T21:03:06.757Z,7.03
2022-09-28T21:08:09.540Z,7.00
2022-09-28T21:13:13.539Z,6.99
2022-09-28T21:18:16.390Z,6.93
2022-09-28T21:23:24.599Z,6.86
2022-09-28T21:28:29.190Z,6.80
2022-09-28T21:33:32.315Z,6.77
2022-09-28T21:51:15.409Z,6.73
2022-09-28T21:56:18.540Z,6.76
2022-09-28T22:01:23.478Z,6.73
2022-09-28T22:06:29.023Z,6.61
2022-09-28T22:11:32.370Z,6.59
2022-09-28T22:16:35.283Z,6.54
2022-09-28T22:21:39.763Z,6.52
2022-09-28T22:26:42.732Z,6.49
2022-09-28T22:31:45.459Z,6.46
2022-09-28T22:36:49.419Z,6.44
2022-09-28T22:41:52.995Z,6.44
2022-09-28T22:46:55.797Z,6.45
2022-09-28T22:52:00.053Z,6.54
2022-09-28T22:57:02.815Z,6.61
2022-09-28T23:02:05.547Z,6.69
2022-09-28T23:07:09.668Z,6.68
2022-09-28T23:12:12.426Z,6.67
2022-09-28T23:17:15.200Z,6.59
2022-09-28T23:22:19.366Z,6.55
2022-09-28T23:27:22.112Z,6.57
2022-09-28T23:32:28.523Z,6.66
2022-09-28T23:37:35.455Z,6.74
2022-09-28T23:42:38.237Z,7.02
2022-09-28T23:47:40.956Z,7.19
2022-09-28T23:52:45.157Z,7.20
2022-09-28T23:57:47.897Z,7.08
